sensor_id;sensor_type;location;lat;lon;timestamp;P1;P2;P0
68841;PMS5003;55849;48.482;2.332;2024-02-16T05:53:36;4.25;4.00;3.25
68841;PMS5003;55849;48.482;2.332;2024-02-16T05:56:38;8.75;4.00;2.00
68841;PMS5003;55849;48.482;2.332;2024-02-16T05:59:41;7.00;4.50;3.00
68841;PMS5003;55849;48.482;2.332;2024-02-16T06:02:43;5.00;4.75;2.50
68841;PMS5003;55849;48.482;2.332;2024-02-16T06:05:44;6.50;4.50;4.00
68841;PMS5003;55849;48.482;2.332;2024-02-16T06:08:47;4.50;4.50;2.50
68841;PMS5003;55849;48.482;2.332;2024-02-16T06:11:49;5.00;3.50;2.00
68841;PMS5003;55849;48.482;2.332;2024-02-16T06:14:50;5.25;3.00;2.00
68841;PMS5003;55849;48.482;2.332;2024-02-16T06:17:53;6.25;5.00;3.00
68841;PMS5003;55849;48.482;2.332;2024-02-16T06:20:55;5.25;3.25;2.25
68841;PMS5003;55849;48.482;2.332;2024-02-16T06:23:58;6.00;3.50;3.00
68841;PMS5003;55849;48.482;2.332;2024-02-16T06:26:59;5.75;5.00;2.75
68841;PMS5003;55849;48.482;2.332;2024-02-16T06:30:01;4.50;3.00;2.25
68841;PMS5003;55849;48.482;2.332;2024-02-16T06:33:05;7.50;4.00;3.00
68841;PMS5003;55849;48.482;2.332;2024-02-16T06:36:07;3.00;3.00;2.00
68841;PMS5003;55849;48.482;2.332;2024-02-16T06:39:10;3.25;3.25;2.25
68841;PMS5003;55849;48.482;2.332;2024-02-16T06:42:16;2.00;2.00;1.00
68841;PMS5003;55849;48.482;2.332;2024-02-16T06:45:18;2.00;2.00;1.75
68841;PMS5003;55849;48.482;2.332;2024-02-16T06:48:20;4.25;4.25;2.00
68841;PMS5003;55849;48.482;2.332;2024-02-16T06:51:22;3.00;3.00;2.00
68841;PMS5003;55849;48.482;2.332;2024-02-16T06:54:25;3.25;3.00;2.00
68841;PMS5003;55849;48.482;2.332;2024-02-16T06:57:26;4.00;1.00;1.00
68841;PMS5003;55849;48.482;2.332;2024-02-16T07:00:29;3.00;3.00;1.00
68841;PMS5003;55849;48.482;2.332;2024-02-16T07:03:30;3.50;1.50;1.00
68841;PMS5003;55849;48.482;2.332;2024-02-16T07:06:32;3.50;2.00;1.00
68841;PMS5003;55849;48.482;2.332;2024-02-16T07:09:35;1.00;1.00;1.00
68841;PMS5003;55849;48.482;2.332;2024-02-16T07:12:36;1.00;1.00;1.00
68841;PMS5003;55849;48.482;2.332;2024-02-16T07:15:38;2.50;2.50;1.50
68841;PMS5003;55849;48.482;2.332;2024-02-16T07:18:40;2.00;1.75;0.75
68841;PMS5003;55849;48.482;2.332;2024-02-16T07:21:43;1.50;1.50;1.00
68841;PMS5003;55849;48.482;2.332;2024-02-16T07:24:46;2.00;2.00;1.00
68841;PMS5003;55849;48.482;2.332;2024-02-16T07:27:48;1.00;1.00;1.00
68841;PMS5003;55849;48.482;2.332;2024-02-16T07:30:50;1.00;1.00;0.00
68841;PMS5003;55849;48.482;2.332;2024-02-16T07:33:51;1.00;1.00;1.00
68841;PMS5003;55849;48.482;2.332;2024-02-16T07:36:53;1.00;1.00;0.00
68841;PMS5003;55849;48.482;2.332;2024-02-16T07:39:56;2.75;0.50;0.25
68841;PMS5003;55849;48.482;2.332;2024-02-16T07:42:58;1.00;1.00;1.00
68841;PMS5003;55849;48.482;2.332;2024-02-16T07:45:59;2.50;0.00;0.00
68841;PMS5003;55849;48.482;2.332;2024-02-16T07:49:01;1.00;0.00;0.00
68841;PMS5003;55849;48.482;2.332;2024-02-16T07:52:04;0.00;0.00;0.00
68841;PMS5003;55849;48.482;2.332;2024-02-16T07:55:08;1.00;0.00;0.00
68841;PMS5003;55849;48.482;2.332;2024-02-16T07:58:10;0.00;0.00;0.00
68841;PMS5003;55849;48.482;2.332;2024-02-16T08:01:12;1.25;1.25;0.75
68841;PMS5003;55849;48.482;2.332;2024-02-16T08:04:15;1.00;1.00;1.00
68841;PMS5003;55849;48.482;2.332;2024-02-16T08:07:16;1.00;1.00;0.00
68841;PMS5003;55849;48.482;2.332;2024-02-16T08:10:20;2.00;1.00;0.50
68841;PMS5003;55849;48.482;2.332;2024-02-16T08:13:22;0.50;0.50;0.00
68841;PMS5003;55849;48.482;2.332;2024-02-16T08:16:24;1.00;0.25;0.00
68841;PMS5003;55849;48.482;2.332;2024-02-16T08:19:26;0.75;0.75;0.00
68841;PMS5003;55849;48.482;2.332;2024-02-16T08:22:33;1.25;0.25;0.00
68841;PMS5003;55849;48.482;2.332;2024-02-16T08:25:37;3.00;1.00;0.00
68841;PMS5003;55849;48.482;2.332;2024-02-16T08:28:39;1.00;1.00;0.00
68841;PMS5003;55849;48.482;2.332;2024-02-16T08:31:40;0.00;0.00;0.00
68841;PMS5003;55849;48.482;2.332;2024-02-16T08:34:44;2.75;0.00;0.00
68841;PMS5003;55849;48.482;2.332;2024-02-16T08:37:46;0.25;0.25;0.00
68841;PMS5003;55849;48.482;2.332;2024-02-16T08:40:49;1.00;1.00;0.00
68841;PMS5003;55849;48.482;2.332;2024-02-16T08:43:52;1.00;1.00;1.00
68841;PMS5003;55849;48.482;2.332;2024-02-16T08:46:53;0.75;0.25;0.00
68841;PMS5003;55849;48.482;2.332;2024-02-16T08:49:55;1.00;1.00;0.00
68841;PMS5003;55849;48.482;2.332;2024-02-16T08:52:57;1.00;1.00;0.00
68841;PMS5003;55849;48.482;2.332;2024-02-16T08:56:00;1.00;1.00;0.00
68841;PMS5003;55849;48.482;2.332;2024-02-16T08:59:01;1.25;1.25;0.00
68841;PMS5003;55849;48.482;2.332;2024-02-16T09:02:03;0.50;0.00;0.00
68841;PMS5003;55849;48.482;2.332;2024-02-16T09:05:06;1.50;0.00;0.00
68841;PMS5003;55849;48.482;2.332;2024-02-16T09:08:09;1.25;1.25;0.75
68841;PMS5003;55849;48.482;2.332;2024-02-16T09:11:13;2.00;1.00;0.00
68841;PMS5003;55849;48.482;2.332;2024-02-16T09:14:14;1.50;1.00;0.00
68841;PMS5003;55849;48.482;2.332;2024-02-16T09:17:16;1.00;0.00;0.00
68841;PMS5003;55849;48.482;2.332;2024-02-16T09:20:19;0.25;0.25;0.00
68841;PMS5003;55849;48.482;2.332;2024-02-16T09:23:22;2.50;0.00;0.00
68841;PMS5003;55849;48.482;2.332;2024-02-16T09:26:25;1.50;1.00;0.00
68841;PMS5003;55849;48.482;2.332;2024-02-16T09:29:30;0.25;0.00;0.00
68841;PMS5003;55849;48.482;2.332;2024-02-16T09:32:33;1.75;1.75;0.00
68841;PMS5003;55849;48.482;2.332;2024-02-16T09:35:34;0.00;0.00;0.00
68841;PMS5003;55849;48.482;2.332;2024-02-16T09:38:36;0.25;0.25;0.00
68841;PMS5003;55849;48.482;2.332;2024-02-16T09:41:41;1.25;1.25;1.00
68841;PMS5003;55849;48.482;2.332;2024-02-16T09:44:44;0.00;0.00;0.00
68841;PMS5003;55849;48.482;2.332;2024-02-16T09:47:46;0.25;0.25;0.00
68841;PMS5003;55849;48.482;2.332;2024-02-16T09:50:48;1.75;1.75;0.75
68841;PMS5003;55849;48.482;2.332;2024-02-16T09:53:51;4.00;1.50;1.00
68841;PMS5003;55849;48.482;2.332;2024-02-16T09:56:57;3.00;1.00;1.00
68841;PMS5003;55849;48.482;2.332;2024-02-16T09:59:59;4.25;1.00;0.25
68841;PMS5003;55849;48.482;2.332;2024-02-16T10:03:00;2.00;1.00;0.00
68841;PMS5003;55849;48.482;2.332;2024-02-16T10:06:05;1.00;1.00;0.00
68841;PMS5003;55849;48.482;2.332;2024-02-16T10:09:07;0.50;0.50;0.00
68841;PMS5003;55849;48.482;2.332;2024-02-16T10:12:17;1.75;1.75;1.00
68841;PMS5003;55849;48.482;2.332;2024-02-16T10:15:21;1.25;1.25;1.00
68841;PMS5003;55849;48.482;2.332;2024-02-16T10:18:27;0.25;0.25;0.00
68841;PMS5003;55849;48.482;2.332;2024-02-16T10:21:29;3.50;2.00;1.00
68841;PMS5003;55849;48.482;2.332;2024-02-16T10:24:31;3.00;2.00;1.00
68841;PMS5003;55849;48.482;2.332;2024-02-16T10:27:34;1.00;1.00;1.00
68841;PMS5003;55849;48.482;2.332;2024-02-16T10:30:37;2.00;1.00;1.00
68841;PMS5003;55849;48.482;2.332;2024-02-16T10:33:39;2.00;2.00;1.00
68841;PMS5003;55849;48.482;2.332;2024-02-16T10:36:43;1.50;1.50;1.00
68841;PMS5003;55849;48.482;2.332;2024-02-16T10:39:45;1.75;1.75;1.00
68841;PMS5003;55849;48.482;2.332;2024-02-16T10:42:49;1.50;1.25;1.00
68841;PMS5003;55849;48.482;2.332;2024-02-16T10:45:52;1.25;1.25;1.00
68841;PMS5003;55849;48.482;2.332;2024-02-16T10:48:54;2.25;2.25;0.00
68841;PMS5003;55849;48.482;2.332;2024-02-16T10:51:56;2.00;2.00;1.00
68841;PMS5003;55849;48.482;2.332;2024-02-16T10:54:59;4.00;4.00;2.00
68841;PMS5003;55849;48.482;2.332;2024-02-16T10:58:03;1.25;1.25;1.00
68841;PMS5003;55849;48.482;2.332;2024-02-16T11:01:08;3.25;3.25;2.00
68841;PMS5003;55849;48.482;2.332;2024-02-16T11:04:11;1.00;1.00;0.75
68841;PMS5003;55849;48.482;2.332;2024-02-16T11:07:17;2.75;1.00;1.00
68841;PMS5003;55849;48.482;2.332;2024-02-16T11:10:20;1.00;1.00;1.00
68841;PMS5003;55849;48.482;2.332;2024-02-16T11:13:24;1.00;1.00;1.00
68841;PMS5003;55849;48.482;2.332;2024-02-16T11:16:26;2.50;1.00;1.00
68841;PMS5003;55849;48.482;2.332;2024-02-16T11:19:29;0.00;0.00;0.00
68841;PMS5003;55849;48.482;2.332;2024-02-16T11:22:30;3.00;2.00;1.00
68841;PMS5003;55849;48.482;2.332;2024-02-16T11:25:32;3.25;3.00;1.00
68841;PMS5003;55849;48.482;2.332;2024-02-16T11:28:35;1.50;1.50;1.00
68841;PMS5003;55849;48.482;2.332;2024-02-16T11:31:37;1.75;1.75;1.00
68841;PMS5003;55849;48.482;2.332;2024-02-16T11:34:39;4.50;4.00;2.00
68841;PMS5003;55849;48.482;2.332;2024-02-16T11:37:40;3.50;2.00;1.00
68841;PMS5003;55849;48.482;2.332;2024-02-16T11:40:52;4.50;3.00;2.00
68841;PMS5003;55849;48.482;2.332;2024-02-16T11:44:00;3.00;2.00;2.00
68841;PMS5003;55849;48.482;2.332;2024-02-16T11:47:02;4.00;4.00;3.00
68841;PMS5003;55849;48.482;2.332;2024-02-16T11:50:05;4.75;3.00;2.00
68841;PMS5003;55849;48.482;2.332;2024-02-16T11:53:14;4.75;4.00;2.00
68841;PMS5003;55849;48.482;2.332;2024-02-16T11:56:21;4.25;4.25;2.00
68841;PMS5003;55849;48.482;2.332;2024-02-16T11:59:25;5.00;5.00;3.00
68841;PMS5003;55849;48.482;2.332;2024-02-16T12:02:27;3.00;3.00;3.00
68841;PMS5003;55849;48.482;2.332;2024-02-16T12:05:29;4.00;4.00;3.00
68841;PMS5003;55849;48.482;2.332;2024-02-16T12:08:34;5.50;4.00;3.00
68841;PMS5003;55849;48.482;2.332;2024-02-16T12:11:36;4.50;4.50;3.50
68841;PMS5003;55849;48.482;2.332;2024-02-16T12:14:39;4.00;4.00;3.00
68841;PMS5003;55849;48.482;2.332;2024-02-16T12:17:42;5.50;5.50;4.25
68841;PMS5003;55849;48.482;2.332;2024-02-16T12:20:43;7.00;5.00;3.75
68841;PMS5003;55849;48.482;2.332;2024-02-16T12:23:48;6.25;6.00;4.00
68841;PMS5003;55849;48.482;2.332;2024-02-16T12:26:50;6.00;6.00;4.75
68841;PMS5003;55849;48.482;2.332;2024-02-16T12:29:53;9.75;7.25;6.00
68841;PMS5003;55849;48.482;2.332;2024-02-16T12:32:54;6.00;5.75;4.75
68841;PMS5003;55849;48.482;2.332;2024-02-16T12:35:56;9.25;8.00;5.25
68841;PMS5003;55849;48.482;2.332;2024-02-16T12:38:58;12.00;9.00;6.50
68841;PMS5003;55849;48.482;2.332;2024-02-16T12:41:59;6.50;5.50;4.00
68841;PMS5003;55849;48.482;2.332;2024-02-16T12:45:02;8.50;8.50;6.00
68841;PMS5003;55849;48.482;2.332;2024-02-16T12:48:05;11.50;8.25;6.00
68841;PMS5003;55849;48.482;2.332;2024-02-16T12:51:07;11.00;9.00;6.75
68841;PMS5003;55849;48.482;2.332;2024-02-16T12:54:11;10.50;9.00;7.00
68841;PMS5003;55849;48.482;2.332;2024-02-16T12:57:14;10.00;8.50;5.25
68841;PMS5003;55849;48.482;2.332;2024-02-16T13:00:18;12.25;9.00;6.00
68841;PMS5003;55849;48.482;2.332;2024-02-16T13:03:19;10.25;8.75;5.25
68841;PMS5003;55849;48.482;2.332;2024-02-16T13:06:21;10.75;8.00;5.50
68841;PMS5003;55849;48.482;2.332;2024-02-16T13:09:23;8.25;8.25;6.25
68841;PMS5003;55849;48.482;2.332;2024-02-16T13:12:24;10.00;8.25;5.00
68841;PMS5003;55849;48.482;2.332;2024-02-16T13:15:28;10.00;9.75;5.50
68841;PMS5003;55849;48.482;2.332;2024-02-16T13:18:30;9.00;7.25;5.00
68841;PMS5003;55849;48.482;2.332;2024-02-16T13:21:32;7.75;6.50;4.00
68841;PMS5003;55849;48.482;2.332;2024-02-16T13:24:34;7.00;6.00;4.00
68841;PMS5003;55849;48.482;2.332;2024-02-16T13:27:36;6.25;6.00;3.25
68841;PMS5003;55849;48.482;2.332;2024-02-16T13:30:39;5.00;5.00;4.00
68841;PMS5003;55849;48.482;2.332;2024-02-16T13:33:40;6.75;6.75;4.50
68841;PMS5003;55849;48.482;2.332;2024-02-16T13:36:42;4.00;3.75;2.75
68841;PMS5003;55849;48.482;2.332;2024-02-16T13:39:43;6.25;4.00;4.00
68841;PMS5003;55849;48.482;2.332;2024-02-16T13:42:45;5.50;4.75;2.00
68841;PMS5003;55849;48.482;2.332;2024-02-16T13:45:49;3.00;3.00;2.00
68841;PMS5003;55849;48.482;2.332;2024-02-16T13:48:52;3.00;3.00;2.00
68841;PMS5003;55849;48.482;2.332;2024-02-16T13:51:55;3.00;3.00;2.00
68841;PMS5003;55849;48.482;2.332;2024-02-16T13:54:58;7.75;7.75;4.00
68841;PMS5003;55849;48.482;2.332;2024-02-16T13:58:00;1.00;1.00;1.00
68841;PMS5003;55849;48.482;2.332;2024-02-16T14:01:03;4.50;3.00;2.00
68841;PMS5003;55849;48.482;2.332;2024-02-16T14:04:05;3.25;3.25;2.00
68841;PMS5003;55849;48.482;2.332;2024-02-16T14:07:07;7.50;3.25;2.00
68841;PMS5003;55849;48.482;2.332;2024-02-16T14:10:10;2.00;2.00;2.00
68841;PMS5003;55849;48.482;2.332;2024-02-16T14:13:11;4.75;4.00;3.50
68841;PMS5003;55849;48.482;2.332;2024-02-16T14:16:14;4.25;4.00;4.00
68841;PMS5003;55849;48.482;2.332;2024-02-16T14:19:16;4.25;3.25;1.75
68841;PMS5003;55849;48.482;2.332;2024-02-16T14:22:17;4.75;4.75;3.00
68841;PMS5003;55849;48.482;2.332;2024-02-16T14:25:19;2.50;2.50;2.25
68841;PMS5003;55849;48.482;2.332;2024-02-16T14:28:21;7.00;5.50;2.75
68841;PMS5003;55849;48.482;2.332;2024-02-16T14:31:24;4.50;4.00;2.25
68841;PMS5003;55849;48.482;2.332;2024-02-16T14:34:25;4.75;3.75;2.00
68841;PMS5003;55849;48.482;2.332;2024-02-16T14:37:27;5.00;5.00;4.00
68841;PMS5003;55849;48.482;2.332;2024-02-16T14:40:29;4.00;4.00;1.75
68841;PMS5003;55849;48.482;2.332;2024-02-16T14:43:30;10.75;7.75;4.75
68841;PMS5003;55849;48.482;2.332;2024-02-16T14:46:34;8.00;6.25;5.00
68841;PMS5003;55849;48.482;2.332;2024-02-16T14:49:36;9.00;6.00;4.00
68841;PMS5003;55849;48.482;2.332;2024-02-16T14:52:37;5.50;5.00;3.00
68841;PMS5003;55849;48.482;2.332;2024-02-16T14:55:39;15.00;14.50;10.50
68841;PMS5003;55849;48.482;2.332;2024-02-16T14:58:40;13.75;8.25;7.25
68841;PMS5003;55849;48.482;2.332;2024-02-16T15:01:46;7.25;6.75;5.00
68841;PMS5003;55849;48.482;2.332;2024-02-16T15:04:47;5.75;5.75;5.00
68841;PMS5003;55849;48.482;2.332;2024-02-16T15:07:49;19.50;16.25;12.25
68841;PMS5003;55849;48.482;2.332;2024-02-16T15:10:51;15.50;15.50;11.75
68841;PMS5003;55849;48.482;2.332;2024-02-16T15:13:52;7.25;7.25;4.00
68841;PMS5003;55849;48.482;2.332;2024-02-16T15:16:55;4.75;3.75;1.75
68841;PMS5003;55849;48.482;2.332;2024-02-16T15:19:57;6.00;6.00;5.00
68841;PMS5003;55849;48.482;2.332;2024-02-16T15:22:59;8.00;8.00;6.25
68841;PMS5003;55849;48.482;2.332;2024-02-16T15:26:00;6.00;6.00;5.00
68841;PMS5003;55849;48.482;2.332;2024-02-16T15:29:03;68.00;52.25;33.50
68841;PMS5003;55849;48.482;2.332;2024-02-16T15:32:06;53.00;42.25;27.25
68841;PMS5003;55849;48.482;2.332;2024-02-16T15:35:09;72.00;56.50;37.75
68841;PMS5003;55849;48.482;2.332;2024-02-16T15:38:10;32.00;30.75;17.50
68841;PMS5003;55849;48.482;2.332;2024-02-16T15:41:12;38.75;34.00;24.25
68841;PMS5003;55849;48.482;2.332;2024-02-16T15:44:14;8.25;8.25;6.50
68841;PMS5003;55849;48.482;2.332;2024-02-16T15:47:17;15.50;12.50;10.25
68841;PMS5003;55849;48.482;2.332;2024-02-16T15:50:18;13.00;11.75;10.00
68841;PMS5003;55849;48.482;2.332;2024-02-16T15:53:20;11.50;11.50;9.00
68841;PMS5003;55849;48.482;2.332;2024-02-16T15:56:21;4.00;2.25;1.75
68841;PMS5003;55849;48.482;2.332;2024-02-16T15:59:24;9.25;8.00;7.00
68841;PMS5003;55849;48.482;2.332;2024-02-16T16:02:27;4.50;3.75;3.00
68841;PMS5003;55849;48.482;2.332;2024-02-16T16:05:28;3.00;2.00;1.00
68841;PMS5003;55849;48.482;2.332;2024-02-16T16:08:32;2.75;2.75;2.00
68841;PMS5003;55849;48.482;2.332;2024-02-16T16:11:34;4.00;3.00;2.00
68841;PMS5003;55849;48.482;2.332;2024-02-16T16:14:36;4.00;4.00;3.00
68841;PMS5003;55849;48.482;2.332;2024-02-16T16:17:39;2.25;2.25;2.00
68841;PMS5003;55849;48.482;2.332;2024-02-16T16:20:41;2.75;2.75;2.50
68841;PMS5003;55849;48.482;2.332;2024-02-16T16:23:44;2.50;2.50;1.50
68841;PMS5003;55849;48.482;2.332;2024-02-16T16:26:45;2.25;2.00;1.00
68841;PMS5003;55849;48.482;2.332;2024-02-16T16:29:48;1.00;1.00;1.00
68841;PMS5003;55849;48.482;2.332;2024-02-16T16:32:51;0.00;0.00;0.00
68841;PMS5003;55849;48.482;2.332;2024-02-16T16:35:53;1.00;1.00;1.00
68841;PMS5003;55849;48.482;2.332;2024-02-16T16:38:54;1.00;1.00;0.00
68841;PMS5003;55849;48.482;2.332;2024-02-16T16:41:56;2.00;2.00;1.00
68841;PMS5003;55849;48.482;2.332;2024-02-16T16:44:58;4.00;4.00;3.00
68841;PMS5003;55849;48.482;2.332;2024-02-16T16:48:01;1.00;1.00;1.00
68841;PMS5003;55849;48.482;2.332;2024-02-16T16:51:03;4.50;2.75;2.00
68841;PMS5003;55849;48.482;2.332;2024-02-16T16:54:05;1.00;1.00;1.00
68841;PMS5003;55849;48.482;2.332;2024-02-16T16:57:06;1.00;0.25;0.00
68841;PMS5003;55849;48.482;2.332;2024-02-16T17:00:08;1.50;1.00;0.00
68841;PMS5003;55849;48.482;2.332;2024-02-16T17:03:12;1.00;1.00;0.00
68841;PMS5003;55849;48.482;2.332;2024-02-16T17:06:14;2.25;2.25;0.75
68841;PMS5003;55849;48.482;2.332;2024-02-16T17:09:16;0.00;0.00;0.00
68841;PMS5003;55849;48.482;2.332;2024-02-16T17:12:18;1.00;1.00;1.00
68841;PMS5003;55849;48.482;2.332;2024-02-16T17:15:21;1.00;1.00;0.50
68841;PMS5003;55849;48.482;2.332;2024-02-16T17:18:24;0.00;0.00;0.00
68841;PMS5003;55849;48.482;2.332;2024-02-16T17:21:25;1.25;1.00;0.00
68841;PMS5003;55849;48.482;2.332;2024-02-16T17:24:27;1.00;1.00;0.00
68841;PMS5003;55849;48.482;2.332;2024-02-16T17:27:30;0.00;0.00;0.00
68841;PMS5003;55849;48.482;2.332;2024-02-16T17:30:32;0.00;0.00;0.00
68841;PMS5003;55849;48.482;2.332;2024-02-16T17:33:36;1.00;1.00;0.00
68841;PMS5003;55849;48.482;2.332;2024-02-16T17:36:37;0.00;0.00;0.00
68841;PMS5003;55849;48.482;2.332;2024-02-16T17:39:39;2.00;1.00;1.00
68841;PMS5003;55849;48.482;2.332;2024-02-16T17:42:41;0.25;0.25;0.00
68841;PMS5003;55849;48.482;2.332;2024-02-16T17:45:43;1.00;1.00;0.00
68841;PMS5003;55849;48.482;2.332;2024-02-16T17:48:46;0.75;0.75;0.00
68841;PMS5003;55849;48.482;2.332;2024-02-16T17:51:47;1.00;1.00;0.00
68841;PMS5003;55849;48.482;2.332;2024-02-16T17:54:49;0.25;0.25;0.00
68841;PMS5003;55849;48.482;2.332;2024-02-16T17:57:51;3.00;1.50;1.00
68841;PMS5003;55849;48.482;2.332;2024-02-16T18:00:52;3.50;3.25;3.00
68841;PMS5003;55849;48.482;2.332;2024-02-16T18:03:55;1.25;1.25;0.75
68841;PMS5003;55849;48.482;2.332;2024-02-16T18:06:57;2.00;1.25;1.00
68841;PMS5003;55849;48.482;2.332;2024-02-16T18:09:58;1.25;1.25;1.00
68841;PMS5003;55849;48.482;2.332;2024-02-16T18:13:01;2.00;1.00;0.50
68841;PMS5003;55849;48.482;2.332;2024-02-16T18:16:03;1.00;1.00;1.00
68841;PMS5003;55849;48.482;2.332;2024-02-16T18:19:06;2.00;2.00;1.00
68841;PMS5003;55849;48.482;2.332;2024-02-16T18:22:08;1.00;1.00;1.00
68841;PMS5003;55849;48.482;2.332;2024-02-16T18:25:10;1.00;1.00;0.50
68841;PMS5003;55849;48.482;2.332;2024-02-16T18:28:11;4.50;0.75;0.00
68841;PMS5003;55849;48.482;2.332;2024-02-16T18:31:13;3.00;2.00;1.00
68841;PMS5003;55849;48.482;2.332;2024-02-16T18:34:16;1.25;1.00;1.00
68841;PMS5003;55849;48.482;2.332;2024-02-16T18:37:18;2.50;2.50;1.75
68841;PMS5003;55849;48.482;2.332;2024-02-16T18:40:19;6.00;2.75;2.75
68841;PMS5003;55849;48.482;2.332;2024-02-16T18:43:21;10.00;9.50;6.00
68841;PMS5003;55849;48.482;2.332;2024-02-16T18:46:23;9.25;9.25;6.50
68841;PMS5003;55849;48.482;2.332;2024-02-16T18:49:26;15.00;9.00;6.50
68841;PMS5003;55849;48.482;2.332;2024-02-16T18:52:27;4.50;2.75;1.50
68841;PMS5003;55849;48.482;2.332;2024-02-16T18:55:30;2.50;0.00;0.00
68841;PMS5003;55849;48.482;2.332;2024-02-16T18:58:32;3.50;3.50;2.75
68841;PMS5003;55849;48.482;2.332;2024-02-16T19:01:33;3.50;3.00;3.00
68841;PMS5003;55849;48.482;2.332;2024-02-16T19:04:37;4.75;4.75;3.25
68841;PMS5003;55849;48.482;2.332;2024-02-16T19:07:38;5.75;3.00;2.25
68841;PMS5003;55849;48.482;2.332;2024-02-16T19:10:40;8.50;5.50;4.00
68841;PMS5003;55849;48.482;2.332;2024-02-16T19:13:43;4.00;4.00;3.75
68841;PMS5003;55849;48.482;2.332;2024-02-16T19:16:45;6.75;6.75;3.75
68841;PMS5003;55849;48.482;2.332;2024-02-16T19:19:48;6.00;5.50;3.50
68841;PMS5003;55849;48.482;2.332;2024-02-16T19:22:49;7.75;6.50;2.75
68841;PMS5003;55849;48.482;2.332;2024-02-16T19:25:54;8.25;8.25;6.75
68841;PMS5003;55849;48.482;2.332;2024-02-16T19:28:56;4.00;4.00;3.00
68841;PMS5003;55849;48.482;2.332;2024-02-16T19:31:58;7.50;4.00;3.00
68841;PMS5003;55849;48.482;2.332;2024-02-16T19:35:01;6.50;4.50;3.00
68841;PMS5003;55849;48.482;2.332;2024-02-16T19:38:05;7.75;7.50;6.00
68841;PMS5003;55849;48.482;2.332;2024-02-16T19:41:06;4.50;4.50;3.00
68841;PMS5003;55849;48.482;2.332;2024-02-16T19:44:08;6.00;5.50;4.00
68841;PMS5003;55849;48.482;2.332;2024-02-16T19:47:09;6.00;4.25;3.00
68841;PMS5003;55849;48.482;2.332;2024-02-16T19:50:12;5.50;5.50;4.00
68841;PMS5003;55849;48.482;2.332;2024-02-16T19:53:14;3.00;3.00;1.00
68841;PMS5003;55849;48.482;2.332;2024-02-16T19:56:16;1.00;1.00;0.00
68841;PMS5003;55849;48.482;2.332;2024-02-16T19:59:17;5.75;3.00;1.00
68841;PMS5003;55849;48.482;2.332;2024-02-16T20:02:19;1.00;1.00;1.00
68841;PMS5003;55849;48.482;2.332;2024-02-16T20:05:22;8.00;6.00;3.00
68841;PMS5003;55849;48.482;2.332;2024-02-16T20:08:24;10.25;9.25;6.00
68841;PMS5003;55849;48.482;2.332;2024-02-16T20:11:26;7.50;5.00;3.75
68841;PMS5003;55849;48.482;2.332;2024-02-16T20:14:28;4.75;4.75;3.00
68841;PMS5003;55849;48.482;2.332;2024-02-16T20:17:29;4.00;4.00;3.00
68841;PMS5003;55849;48.482;2.332;2024-02-16T20:20:33;5.50;5.50;4.00
68841;PMS5003;55849;48.482;2.332;2024-02-16T20:23:35;5.50;5.50;3.25
68841;PMS5003;55849;48.482;2.332;2024-02-16T20:26:37;4.75;4.50;2.75
68841;PMS5003;55849;48.482;2.332;2024-02-16T20:29:40;14.00;8.00;4.00
68841;PMS5003;55849;48.482;2.332;2024-02-16T20:32:43;7.00;6.50;6.00
68841;PMS5003;55849;48.482;2.332;2024-02-16T20:35:47;7.75;7.50;6.00
68841;PMS5003;55849;48.482;2.332;2024-02-16T20:38:48;13.25;11.75;9.75
68841;PMS5003;55849;48.482;2.332;2024-02-16T20:41:50;9.00;9.00;5.50
68841;PMS5003;55849;48.482;2.332;2024-02-16T20:44:51;11.25;9.25;7.00
68841;PMS5003;55849;48.482;2.332;2024-02-16T20:47:53;6.75;6.75;5.50
68841;PMS5003;55849;48.482;2.332;2024-02-16T20:50:56;8.00;4.25;3.00
68841;PMS5003;55849;48.482;2.332;2024-02-16T20:53:58;1.00;1.00;0.75
68841;PMS5003;55849;48.482;2.332;2024-02-16T20:57:01;0.25;0.25;0.00
68841;PMS5003;55849;48.482;2.332;2024-02-16T21:00:03;0.00;0.00;0.00
68841;PMS5003;55849;48.482;2.332;2024-02-16T21:03:08;2.00;1.00;1.00
68841;PMS5003;55849;48.482;2.332;2024-02-16T21:06:11;1.00;0.00;0.00
68841;PMS5003;55849;48.482;2.332;2024-02-16T21:09:12;1.50;0.00;0.00
68841;PMS5003;55849;48.482;2.332;2024-02-16T21:12:14;0.00;0.00;0.00
68841;PMS5003;55849;48.482;2.332;2024-02-16T21:15:16;0.00;0.00;0.00
68841;PMS5003;55849;48.482;2.332;2024-02-16T21:18:18;0.00;0.00;0.00
68841;PMS5003;55849;48.482;2.332;2024-02-16T21:21:21;2.00;2.00;0.50
68841;PMS5003;55849;48.482;2.332;2024-02-16T21:24:23;3.00;0.00;0.00
68841;PMS5003;55849;48.482;2.332;2024-02-16T21:27:24;4.75;2.50;0.50
68841;PMS5003;55849;48.482;2.332;2024-02-16T21:30:26;2.25;2.25;1.00
68841;PMS5003;55849;48.482;2.332;2024-02-16T21:33:28;2.25;0.50;0.00
68841;PMS5003;55849;48.482;2.332;2024-02-16T21:36:31;1.00;1.00;0.00
68841;PMS5003;55849;48.482;2.332;2024-02-16T21:39:33;0.00;0.00;0.00
68841;PMS5003;55849;48.482;2.332;2024-02-16T21:42:34;0.00;0.00;0.00
68841;PMS5003;55849;48.482;2.332;2024-02-16T21:45:36;2.50;1.75;0.75
68841;PMS5003;55849;48.482;2.332;2024-02-16T21:48:38;0.00;0.00;0.00
68841;PMS5003;55849;48.482;2.332;2024-02-16T21:51:40;0.00;0.00;0.00
68841;PMS5003;55849;48.482;2.332;2024-02-16T21:54:42;3.25;3.00;1.00
68841;PMS5003;55849;48.482;2.332;2024-02-16T21:57:44;0.50;0.50;0.25
68841;PMS5003;55849;48.482;2.332;2024-02-16T22:00:45;1.00;1.00;0.00
68841;PMS5003;55849;48.482;2.332;2024-02-16T22:03:47;0.00;0.00;0.00
68841;PMS5003;55849;48.482;2.332;2024-02-16T22:06:50;0.00;0.00;0.00
68841;PMS5003;55849;48.482;2.332;2024-02-16T22:09:53;2.25;0.00;0.00
68841;PMS5003;55849;48.482;2.332;2024-02-16T22:12:54;1.00;1.00;0.75
68841;PMS5003;55849;48.482;2.332;2024-02-16T22:15:56;2.00;2.00;1.00
68841;PMS5003;55849;48.482;2.332;2024-02-16T22:18:58;0.00;0.00;0.00
68841;PMS5003;55849;48.482;2.332;2024-02-16T22:22:01;0.00;0.00;0.00
68841;PMS5003;55849;48.482;2.332;2024-02-16T22:25:03;3.00;3.00;1.00
68841;PMS5003;55849;48.482;2.332;2024-02-16T22:28:05;4.00;4.00;3.00
68841;PMS5003;55849;48.482;2.332;2024-02-16T22:31:07;4.00;4.00;3.50
68841;PMS5003;55849;48.482;2.332;2024-02-16T22:34:09;6.00;3.75;1.00
68841;PMS5003;55849;48.482;2.332;2024-02-16T22:37:12;1.00;1.00;0.00
68841;PMS5003;55849;48.482;2.332;2024-02-16T22:40:14;3.00;1.00;0.75
68841;PMS5003;55849;48.482;2.332;2024-02-16T22:43:16;2.00;1.50;1.00
68841;PMS5003;55849;48.482;2.332;2024-02-16T22:46:18;3.00;3.00;2.25
68841;PMS5003;55849;48.482;2.332;2024-02-16T22:49:19;5.00;1.00;1.00
68841;PMS5003;55849;48.482;2.332;2024-02-16T22:52:22;3.50;2.00;0.50
68841;PMS5003;55849;48.482;2.332;2024-02-16T22:55:24;1.75;0.50;0.00
68841;PMS5003;55849;48.482;2.332;2024-02-16T22:58:25;0.00;0.00;0.00
68841;PMS5003;55849;48.482;2.332;2024-02-16T23:01:27;4.00;0.00;0.00
68841;PMS5003;55849;48.482;2.332;2024-02-16T23:04:30;3.50;3.00;1.50
68841;PMS5003;55849;48.482;2.332;2024-02-16T23:07:34;1.50;1.50;1.00
68841;PMS5003;55849;48.482;2.332;2024-02-16T23:10:35;2.50;1.00;0.00
68841;PMS5003;55849;48.482;2.332;2024-02-16T23:13:37;0.50;0.50;0.00
68841;PMS5003;55849;48.482;2.332;2024-02-16T23:16:39;5.00;1.50;1.00
68841;PMS5003;55849;48.482;2.332;2024-02-16T23:19:41;3.25;1.00;0.00
68841;PMS5003;55849;48.482;2.332;2024-02-16T23:26:05;0.00;0.00;0.00
68841;PMS5003;55849;48.482;2.332;2024-02-16T23:29:06;1.00;1.00;1.00
68841;PMS5003;55849;48.482;2.332;2024-02-16T23:32:11;2.25;0.00;0.00
68841;PMS5003;55849;48.482;2.332;2024-02-16T23:35:13;3.00;1.00;0.25
68841;PMS5003;55849;48.482;2.332;2024-02-16T23:38:16;1.00;1.00;0.00
68841;PMS5003;55849;48.482;2.332;2024-02-16T23:41:18;1.00;1.00;0.25